Terminal Aerodrome Forecast
Issued by NWS

Home | Current Version | Previous Version | Graphics & Text | Print | Product List | Glossary On
Versions: 1 2 3 4 5 6 7 8 9 10 11 12 13 14 15 16 17 18 19 20 21 22 23
716
FTUS43 KABR 231136 AAB
TAFPIR
TAF AMD
KPIR 231136Z 2312/2412 26004KT 1/2SM FZFG OVC003
      TEMPO 2312/2313 1/4SM FZFG VV002
     FM231300 27004KT 2SM BR OVC008
     FM231400 27005KT P6SM OVC020
     FM231500 27006KT P6SM SCT150
     FM231800 30010KT P6SM SCT200
     FM240200 29006KT P6SM FEW250=

USA.gov is the U.S. government's official web portal to all federal, state and local government web resources and services.